Terminal Aerodrome Forecast
Issued by NWS Charleston, WV

Current Version | Previous Version | Graphics & Text | Print | Product List | Glossary On
Versions: 1 2 3 4 5 6 7 8 9 10 11 12 13 14 15 16 17 18 19 20 21 22 23 24 25 26
000
FTUS41 KRLX 182300
TAFHTS
TAF
KHTS 182334Z 1900/1924 VRB03KT 6SM BR SCT040
      TEMPO 1900/1901 4SM -SHRA
     FM190200 23003KT 5SM BR SCT040
     FM190400 23003KT 3SM BR SCT001
     FM190600 00000KT 1SM BR BKN001
     FM190800 00000KT 1/2SM FG BKN001
     FM191300 VRB03KT 1SM BR BKN010
     FM191400 VRB03KT 5SM HZ SCT020
     FM191700 23005KT 6SM HZ BKN035
     FM192300 VRB03KT P6SM SCT035 BKN080=

USA.gov is the U.S. government's official web portal to all federal, state and local government web resources and services.